createdAt,value
2023-03-26T00:02:09.236Z,17.00
2023-03-26T00:04:39.623Z,17.00
2023-03-26T00:07:10.425Z,17.40
2023-03-26T00:09:40.212Z,16.60
2023-03-26T00:12:12.201Z,14.70
2023-03-26T00:14:41.289Z,14.50
2023-03-26T00:17:10.041Z,15.80
2023-03-26T00:19:41.710Z,15.70
2023-03-26T00:22:14.017Z,14.20
2023-03-26T00:24:46.283Z,13.00
2023-03-26T00:27:20.775Z,15.10
2023-03-26T00:29:50.298Z,13.70
2023-03-26T00:32:18.925Z,14.20
2023-03-26T00:34:48.361Z,14.40
2023-03-26T00:37:19.053Z,13.60
2023-03-26T00:39:49.406Z,13.20
2023-03-26T00:42:19.426Z,14.60
2023-03-26T00:44:48.096Z,15.60
2023-03-26T00:47:17.600Z,13.60
2023-03-26T00:49:49.082Z,14.10
2023-03-26T00:52:19.268Z,14.50
2023-03-26T00:54:51.685Z,14.10
2023-03-26T00:57:34.674Z,15.40
2023-03-26T01:00:10.457Z,14.50
2023-03-26T01:02:41.175Z,16.10
2023-03-26T01:05:36.496Z,14.80
2023-03-26T01:08:15.475Z,15.60
2023-03-26T01:10:44.757Z,14.90
2023-03-26T01:13:14.214Z,15.20
2023-03-26T01:15:42.815Z,15.60
2023-03-26T01:18:14.559Z,14.70
2023-03-26T01:20:47.036Z,14.30
2023-03-26T01:23:24.125Z,15.50
2023-03-26T01:26:11.085Z,12.00
2023-03-26T01:28:47.229Z,12.90
2023-03-26T01:31:30.968Z,14.20
2023-03-26T01:34:14.811Z,14.00
2023-03-26T01:36:56.132Z,13.60
2023-03-26T01:39:39.130Z,15.00
2023-03-26T01:42:12.025Z,14.20
2023-03-26T01:44:57.910Z,14.70
2023-03-26T01:47:26.660Z,14.00
2023-03-26T01:49:55.465Z,13.70
2023-03-26T01:52:26.582Z,14.00
2023-03-26T01:54:56.458Z,13.50
2023-03-26T01:57:36.733Z,14.60
2023-03-26T02:00:14.183Z,14.00
2023-03-26T02:03:06.001Z,12.60
2023-03-26T02:05:43.227Z,13.90
2023-03-26T02:08:23.932Z,14.70
2023-03-26T02:10:57.757Z,13.50
2023-03-26T02:13:27.448Z,13.10
2023-03-26T02:16:05.395Z,12.70
2023-03-26T02:18:39.064Z,13.30
2023-03-26T02:21:12.998Z,15.10
2023-03-26T02:23:47.130Z,15.40
2023-03-26T02:26:17.335Z,13.80
2023-03-26T02:29:02.415Z,14.90
2023-03-26T02:31:31.690Z,13.70
2023-03-26T02:34:01.069Z,15.10
2023-03-26T02:36:31.935Z,14.20
2023-03-26T02:39:02.666Z,14.50
2023-03-26T02:41:37.093Z,13.40
2023-03-26T02:44:09.364Z,14.80
2023-03-26T02:47:01.140Z,12.30
2023-03-26T02:49:42.730Z,17.10
2023-03-26T02:52:12.115Z,13.00
2023-03-26T02:54:48.847Z,12.70
2023-03-26T02:57:26.456Z,12.40
2023-03-26T03:00:27.232Z,12.70
2023-03-26T03:03:01.070Z,12.50
2023-03-26T03:05:33.086Z,14.70
2023-03-26T03:08:23.858Z,13.40
2023-03-26T03:11:18.995Z,12.80
2023-03-26T03:13:48.461Z,13.00
2023-03-26T03:16:20.274Z,12.10
2023-03-26T03:19:00.845Z,11.10
2023-03-26T03:21:51.805Z,10.80
2023-03-26T03:24:22.110Z,10.20
2023-03-26T03:26:56.942Z,11.00
2023-03-26T03:29:54.809Z,10.20
2023-03-26T03:32:43.779Z,11.70
2023-03-26T03:35:13.319Z,10.90
2023-03-26T03:37:44.341Z,10.70
2023-03-26T03:40:13.353Z,9.50
2023-03-26T03:42:47.448Z,11.20
2023-03-26T03:45:21.174Z,12.70
2023-03-26T03:47:59.318Z,11.40
2023-03-26T03:50:46.448Z,11.20
2023-03-26T03:53:47.715Z,10.90
2023-03-26T03:56:38.183Z,10.40
2023-03-26T03:59:19.935Z,11.00
2023-03-26T04:01:50.960Z,12.30
2023-03-26T04:04:50.397Z,10.60
2023-03-26T04:07:24.756Z,11.50
2023-03-26T04:10:16.259Z,11.20
2023-03-26T04:13:12.912Z,11.10
2023-03-26T04:16:02.193Z,9.40
2023-03-26T04:18:36.983Z,10.20
2023-03-26T04:21:12.833Z,11.30
2023-03-26T04:23:42.672Z,10.20
2023-03-26T04:26:26.138Z,10.20
2023-03-26T04:29:24.707Z,10.00
2023-03-26T04:31:58.919Z,9.00
2023-03-26T04:34:31.206Z,9.20
2023-03-26T04:37:22.363Z,9.40
2023-03-26T04:39:59.463Z,9.60
2023-03-26T04:42:37.836Z,8.40
2023-03-26T04:45:14.931Z,7.30
2023-03-26T04:47:46.568Z,9.60
2023-03-26T04:50:17.038Z,8.00
2023-03-26T04:52:45.731Z,7.90
2023-03-26T04:55:43.315Z,7.30
2023-03-26T04:58:19.276Z,7.50
2023-03-26T05:00:57.634Z,7.70
2023-03-26T05:03:32.666Z,7.40
2023-03-26T05:06:05.323Z,6.10
2023-03-26T05:08:33.833Z,7.30
2023-03-26T05:11:07.758Z,6.90
2023-03-26T05:13:37.829Z,6.00
2023-03-26T05:16:11.242Z,6.40
2023-03-26T05:18:49.976Z,7.10
2023-03-26T05:21:18.655Z,7.00
2023-03-26T05:23:47.663Z,6.80
2023-03-26T05:26:20.930Z,6.50
2023-03-26T05:28:49.596Z,6.90
2023-03-26T05:31:24.686Z,6.70
2023-03-26T05:33:55.593Z,6.40
2023-03-26T05:36:28.626Z,6.80
2023-03-26T05:39:06.400Z,5.80
2023-03-26T05:41:58.202Z,6.80
2023-03-26T05:44:34.042Z,5.80
2023-03-26T05:47:05.174Z,7.30
2023-03-26T05:49:34.411Z,6.10
2023-03-26T05:52:06.397Z,7.60
2023-03-26T05:54:46.952Z,7.30
2023-03-26T05:57:35.844Z,7.00
2023-03-26T06:00:27.845Z,7.80
2023-03-26T06:02:57.530Z,7.70
2023-03-26T06:05:45.262Z,8.50
2023-03-26T06:08:47.118Z,7.60
2023-03-26T06:11:19.536Z,8.90
2023-03-26T06:16:26.375Z,9.50
2023-03-26T06:19:19.258Z,8.10
2023-03-26T06:22:00.590Z,7.70
2023-03-26T06:24:39.085Z,7.30
2023-03-26T06:27:34.122Z,7.40
2023-03-26T06:30:37.492Z,6.90
2023-03-26T06:33:14.721Z,8.20
2023-03-26T06:35:51.278Z,7.80
2023-03-26T06:38:20.950Z,7.80
2023-03-26T06:40:52.039Z,7.60
2023-03-26T06:43:27.420Z,7.30
2023-03-26T06:46:21.491Z,7.60
2023-03-26T06:48:57.146Z,8.80
2023-03-26T06:51:50.268Z,8.30
2023-03-26T06:54:43.233Z,7.10
2023-03-26T06:57:31.969Z,6.40
2023-03-26T07:00:20.991Z,8.00
2023-03-26T07:03:08.987Z,7.70
2023-03-26T07:06:07.115Z,6.30
2023-03-26T07:08:48.707Z,7.50
2023-03-26T07:11:35.657Z,6.90
2023-03-26T07:14:22.846Z,7.00
2023-03-26T07:17:08.671Z,6.90
2023-03-26T07:19:47.942Z,7.50
2023-03-26T07:22:21.942Z,8.10
2023-03-26T07:25:10.221Z,6.70
2023-03-26T07:28:26.082Z,8.60
2023-03-26T07:31:20.966Z,9.30
2023-03-26T07:34:31.714Z,7.50
2023-03-26T07:37:53.423Z,7.10
2023-03-26T07:40:49.860Z,7.70
2023-03-26T07:43:44.783Z,7.90
2023-03-26T07:46:37.448Z,9.70
2023-03-26T07:49:25.371Z,9.50
2023-03-26T07:52:10.480Z,12.80
2023-03-26T07:54:58.312Z,9.60
2023-03-26T07:58:05.428Z,10.20
2023-03-26T08:00:52.315Z,8.60
2023-03-26T08:03:37.073Z,8.00
2023-03-26T08:06:17.416Z,7.10
2023-03-26T08:09:24.914Z,7.80
2023-03-26T08:12:58.563Z,6.70
2023-03-26T08:15:34.283Z,8.40
2023-03-26T08:18:18.488Z,9.40
2023-03-26T08:20:49.407Z,7.20
2023-03-26T08:23:29.950Z,8.60
2023-03-26T08:26:12.998Z,8.60
2023-03-26T08:29:10.162Z,9.70
2023-03-26T08:31:41.702Z,9.00
2023-03-26T08:34:11.859Z,9.00
2023-03-26T08:36:43.309Z,9.00
2023-03-26T08:39:13.297Z,11.00
2023-03-26T08:41:53.843Z,10.00
2023-03-26T08:45:03.888Z,9.60
2023-03-26T08:47:53.046Z,9.80
2023-03-26T08:50:34.185Z,10.20
2023-03-26T08:53:27.367Z,10.80
2023-03-26T08:56:19.549Z,9.70
2023-03-26T08:59:08.560Z,9.60
2023-03-26T09:01:49.806Z,15.00
2023-03-26T09:04:49.655Z,11.30
2023-03-26T09:07:41.974Z,11.90
2023-03-26T09:10:21.768Z,11.90
2023-03-26T09:13:16.324Z,12.20
2023-03-26T09:16:06.936Z,12.40
2023-03-26T09:19:11.548Z,11.80
2023-03-26T09:22:00.054Z,9.30
2023-03-26T09:24:56.391Z,10.00
2023-03-26T09:27:27.925Z,10.80
2023-03-26T09:29:59.889Z,14.60
2023-03-26T09:32:56.806Z,19.30
2023-03-26T09:35:47.729Z,20.20
2023-03-26T09:38:48.934Z,25.90
2023-03-26T09:41:36.520Z,27.10
2023-03-26T09:44:27.376Z,24.60
2023-03-26T09:47:09.361Z,26.70
2023-03-26T09:50:04.191Z,27.00
2023-03-26T09:52:47.012Z,25.70
2023-03-26T09:55:46.361Z,26.10
2023-03-26T09:58:26.078Z,22.50
2023-03-26T10:01:01.337Z,21.30
2023-03-26T10:04:02.651Z,22.80
2023-03-26T10:06:47.188Z,27.20
2023-03-26T10:09:57.608Z,27.80
2023-03-26T10:12:51.254Z,25.70
2023-03-26T10:15:29.234Z,22.40
2023-03-26T10:18:27.804Z,24.70
2023-03-26T10:21:02.016Z,26.70
2023-03-26T10:24:07.796Z,26.00
2023-03-26T10:27:15.895Z,29.60
2023-03-26T10:30:00.300Z,26.40
2023-03-26T10:32:59.133Z,25.20
2023-03-26T10:35:52.651Z,24.40
2023-03-26T10:38:35.749Z,22.70
2023-03-26T10:42:05.998Z,20.60
2023-03-26T10:44:59.484Z,16.30
2023-03-26T10:47:57.068Z,15.60
2023-03-26T10:50:31.228Z,20.50
2023-03-26T10:53:10.594Z,18.10
2023-03-26T10:55:41.600Z,14.30
2023-03-26T10:58:26.892Z,12.90
2023-03-26T11:01:06.206Z,12.10
2023-03-26T11:04:23.406Z,10.30
2023-03-26T11:06:55.084Z,18.80
2023-03-26T11:09:52.024Z,21.80
2023-03-26T11:12:44.957Z,21.60
2023-03-26T11:15:36.247Z,22.30
2023-03-26T11:18:09.439Z,22.90
2023-03-26T11:20:49.125Z,18.50
2023-03-26T11:23:20.696Z,15.70
2023-03-26T11:26:06.475Z,13.90
2023-03-26T11:29:04.426Z,10.30
2023-03-26T11:32:18.167Z,8.70
2023-03-26T11:35:01.606Z,7.90
2023-03-26T11:37:34.347Z,8.30
2023-03-26T11:40:08.098Z,8.20
2023-03-26T11:42:37.136Z,8.50
2023-03-26T11:45:07.438Z,9.70
2023-03-26T11:50:10.239Z,9.70
2023-03-26T11:52:39.048Z,9.70
2023-03-26T11:55:15.321Z,9.50
2023-03-26T11:57:52.405Z,8.40
2023-03-26T12:00:27.771Z,10.20
2023-03-26T12:02:59.289Z,14.30
2023-03-26T12:05:37.005Z,13.10
2023-03-26T12:08:19.049Z,12.90
2023-03-26T12:11:00.357Z,13.00
2023-03-26T12:13:43.897Z,13.70
2023-03-26T12:16:17.950Z,14.90
2023-03-26T12:18:57.438Z,16.10
2023-03-26T12:21:26.278Z,14.70
2023-03-26T12:24:00.285Z,16.60
2023-03-26T12:26:41.940Z,19.60
2023-03-26T12:29:15.676Z,18.00
2023-03-26T12:31:57.027Z,13.80
2023-03-26T12:34:31.884Z,10.50
2023-03-26T12:37:01.273Z,9.00
2023-03-26T12:40:07.672Z,10.30
2023-03-26T12:44:46.166Z,9.40
2023-03-26T12:45:24.079Z,12.00
2023-03-26T12:47:58.716Z,17.70
2023-03-26T12:51:10.770Z,16.60
2023-03-26T12:54:05.893Z,16.30
2023-03-26T12:57:12.417Z,17.40
2023-03-26T13:00:24.221Z,17.30
2023-03-26T13:03:26.914Z,16.10
2023-03-26T13:06:21.974Z,14.40
2023-03-26T13:09:09.421Z,13.80
2023-03-26T13:12:06.121Z,17.40
2023-03-26T13:14:44.140Z,18.80
2023-03-26T13:17:18.121Z,23.50
2023-03-26T13:19:54.951Z,20.40
2023-03-26T13:22:30.846Z,17.80
2023-03-26T13:25:10.723Z,18.40
2023-03-26T13:28:10.490Z,23.10
2023-03-26T13:30:39.961Z,34.40
2023-03-26T13:33:41.330Z,26.10
2023-03-26T13:36:49.288Z,16.50
2023-03-26T13:39:27.430Z,12.70
2023-03-26T13:42:03.777Z,13.90
2023-03-26T13:44:41.313Z,16.70
2023-03-26T13:47:13.462Z,15.70
2023-03-26T13:50:02.009Z,16.20
2023-03-26T13:52:36.701Z,18.20
2023-03-26T13:55:30.786Z,24.10
2023-03-26T13:58:05.286Z,16.50
2023-03-26T14:01:04.143Z,13.50
2023-03-26T14:04:04.542Z,12.40
2023-03-26T14:06:47.623Z,15.10
2023-03-26T14:09:52.073Z,14.30
2023-03-26T14:12:53.329Z,16.70
2023-03-26T14:15:27.713Z,14.50
2023-03-26T14:18:06.769Z,9.20
2023-03-26T14:20:59.224Z,13.60
2023-03-26T14:23:37.141Z,9.80
2023-03-26T14:26:37.588Z,8.30
2023-03-26T14:29:12.891Z,8.50
2023-03-26T14:31:52.051Z,8.50
2023-03-26T14:34:56.349Z,7.30
2023-03-26T14:37:48.253Z,15.40
2023-03-26T14:40:30.053Z,14.70
2023-03-26T14:43:37.360Z,11.50
2023-03-26T14:46:48.080Z,11.40
2023-03-26T14:49:33.590Z,12.90
2023-03-26T14:52:05.257Z,13.00
2023-03-26T14:54:35.747Z,13.00
2023-03-26T14:57:27.734Z,15.20
2023-03-26T15:00:06.848Z,11.10
2023-03-26T15:03:04.017Z,16.20
2023-03-26T15:05:55.256Z,33.80
2023-03-26T15:08:55.897Z,38.40
2023-03-26T15:11:48.441Z,11.70
2023-03-26T15:14:55.546Z,5.30
2023-03-26T15:17:38.866Z,3.60
2023-03-26T15:20:36.783Z,4.30
2023-03-26T15:23:24.270Z,17.60
2023-03-26T15:26:24.421Z,17.00
2023-03-26T15:29:15.170Z,18.30
2023-03-26T15:32:30.517Z,16.30
2023-03-26T15:35:02.821Z,14.30
2023-03-26T15:37:56.913Z,16.00
2023-03-26T15:40:34.404Z,14.90
2023-03-26T15:43:15.958Z,14.10
2023-03-26T15:45:54.817Z,15.30
2023-03-26T15:48:55.140Z,18.60
2023-03-26T15:51:46.446Z,15.80
2023-03-26T15:54:24.905Z,14.20
2023-03-26T15:57:09.074Z,13.10
2023-03-26T15:59:41.209Z,13.70
2023-03-26T16:02:26.964Z,13.40
2023-03-26T16:04:57.679Z,15.20
2023-03-26T16:07:51.210Z,15.70
2023-03-26T16:10:45.633Z,13.30
2023-03-26T16:13:18.733Z,11.50
2023-03-26T16:16:21.904Z,11.20
2023-03-26T16:19:00.945Z,12.30
2023-03-26T16:21:46.132Z,10.70
2023-03-26T16:24:22.498Z,11.90
2023-03-26T16:26:52.121Z,13.40
2023-03-26T16:29:24.164Z,16.80
2023-03-26T16:32:29.629Z,15.40
2023-03-26T16:35:05.117Z,16.00
2023-03-26T16:37:50.340Z,13.30
2023-03-26T16:40:22.877Z,15.70
2023-03-26T16:43:13.942Z,14.20
2023-03-26T16:46:03.400Z,13.50
2023-03-26T16:48:57.842Z,26.40
2023-03-26T16:51:46.833Z,22.70
2023-03-26T16:54:48.980Z,22.40
2023-03-26T16:57:46.764Z,17.60
2023-03-26T17:00:29.988Z,25.80
2023-03-26T17:03:18.198Z,24.80
2023-03-26T17:05:54.866Z,12.50
2023-03-26T17:08:35.204Z,10.10
2023-03-26T17:11:26.594Z,9.90
2023-03-26T17:14:29.929Z,12.80
2023-03-26T17:17:21.293Z,13.20
2023-03-26T17:20:06.129Z,12.60
2023-03-26T17:22:44.001Z,11.00
2023-03-26T17:26:09.153Z,9.80
2023-03-26T17:28:50.537Z,8.80
2023-03-26T17:31:38.921Z,9.50
2023-03-26T17:34:46.893Z,9.80
2023-03-26T17:37:24.771Z,10.20
2023-03-26T17:40:12.832Z,10.80
2023-03-26T17:43:00.279Z,11.10
2023-03-26T17:45:30.910Z,9.80
2023-03-26T17:48:15.840Z,15.70
2023-03-26T17:50:51.850Z,18.20
2023-03-26T17:53:31.990Z,10.10
2023-03-26T17:56:04.088Z,9.90
2023-03-26T17:58:37.934Z,9.40
2023-03-26T18:01:10.519Z,24.40
2023-03-26T18:03:44.540Z,19.80
2023-03-26T18:06:14.867Z,11.50
2023-03-26T18:08:48.274Z,12.80
2023-03-26T18:11:27.117Z,7.30
2023-03-26T18:14:18.425Z,5.90
2023-03-26T18:16:51.226Z,6.00
2023-03-26T18:19:23.066Z,6.60
2023-03-26T18:21:59.490Z,6.30
2023-03-26T18:24:38.570Z,5.70
2023-03-26T18:27:12.578Z,6.40
2023-03-26T18:30:07.324Z,6.10
2023-03-26T18:32:41.272Z,6.60
2023-03-26T18:35:17.280Z,6.50
2023-03-26T18:37:46.324Z,5.80
2023-03-26T18:40:21.114Z,6.50
2023-03-26T18:42:57.802Z,6.60
2023-03-26T18:45:34.897Z,7.00
2023-03-26T18:48:06.812Z,7.00
2023-03-26T18:50:39.238Z,6.00
2023-03-26T18:53:15.330Z,6.50
2023-03-26T18:55:44.631Z,6.20
2023-03-26T18:58:26.778Z,5.80
2023-03-26T19:01:00.434Z,6.70
2023-03-26T19:03:32.393Z,6.20
2023-03-26T19:06:02.552Z,6.30
2023-03-26T19:08:33.049Z,6.20
2023-03-26T19:11:07.282Z,6.50
2023-03-26T19:13:37.626Z,6.10
2023-03-26T19:16:18.164Z,6.60
2023-03-26T19:18:50.017Z,6.10
2023-03-26T19:21:23.466Z,5.70
2023-03-26T19:23:53.442Z,5.70
2023-03-26T19:26:24.680Z,6.30
2023-03-26T19:28:54.781Z,5.70
2023-03-26T19:31:37.358Z,6.60
2023-03-26T19:37:01.682Z,5.60
2023-03-26T19:39:48.278Z,6.60
2023-03-26T19:42:43.240Z,5.40
2023-03-26T19:45:20.322Z,6.60
2023-03-26T19:48:00.109Z,4.90
2023-03-26T19:50:42.345Z,5.50
2023-03-26T19:53:19.307Z,5.60
2023-03-26T19:55:59.069Z,6.10
2023-03-26T19:58:28.070Z,6.10
2023-03-26T20:00:58.759Z,5.50
2023-03-26T20:03:40.650Z,6.70
2023-03-26T20:06:12.599Z,6.80
2023-03-26T20:08:46.912Z,7.40
2023-03-26T20:11:18.834Z,8.40
2023-03-26T20:13:53.928Z,8.90
2023-03-26T20:16:27.685Z,9.60
2023-03-26T20:19:02.479Z,10.30
2023-03-26T20:21:41.683Z,11.30
2023-03-26T20:24:15.255Z,10.50
2023-03-26T20:26:44.667Z,9.60
2023-03-26T20:29:15.226Z,10.40
2023-03-26T20:31:44.462Z,10.10
2023-03-26T20:34:22.182Z,9.50
2023-03-26T20:36:55.397Z,10.10
2023-03-26T20:39:24.571Z,8.50
2023-03-26T20:41:55.195Z,10.60
2023-03-26T20:44:23.914Z,9.90
2023-03-26T20:46:52.664Z,9.00
2023-03-26T20:49:22.342Z,9.80
2023-03-26T20:51:51.140Z,10.10
2023-03-26T20:54:23.598Z,8.40
2023-03-26T20:56:53.814Z,8.90
2023-03-26T20:59:29.326Z,7.80
2023-03-26T21:02:00.482Z,7.50
2023-03-26T21:04:29.567Z,6.00
2023-03-26T21:07:07.261Z,7.10
2023-03-26T21:09:45.203Z,6.70
2023-03-26T21:12:33.584Z,6.50
2023-03-26T21:15:13.608Z,5.90
2023-03-26T21:17:46.945Z,5.40
2023-03-26T21:20:17.022Z,6.40
2023-03-26T21:23:09.091Z,5.40
2023-03-26T21:26:12.537Z,5.40
2023-03-26T21:28:51.166Z,6.00
2023-03-26T21:31:21.781Z,6.40
2023-03-26T21:33:51.218Z,6.10
2023-03-26T21:36:20.722Z,6.40
2023-03-26T21:38:50.683Z,6.10
2023-03-26T21:41:36.741Z,5.80
2023-03-26T21:44:05.750Z,7.00
2023-03-26T21:46:35.344Z,7.40
2023-03-26T21:49:05.017Z,7.70
2023-03-26T21:51:34.443Z,6.90
2023-03-26T21:54:29.728Z,7.20
2023-03-26T21:57:02.242Z,7.80
2023-03-26T21:59:51.954Z,7.50
2023-03-26T22:02:41.898Z,8.60
2023-03-26T22:05:17.839Z,9.40
2023-03-26T22:07:57.277Z,8.70
2023-03-26T22:10:26.185Z,9.80
2023-03-26T22:12:54.922Z,9.20
2023-03-26T22:15:30.834Z,11.10
2023-03-26T22:18:03.855Z,11.70
2023-03-26T22:20:34.826Z,12.60
2023-03-26T22:23:05.168Z,11.80
2023-03-26T22:25:33.723Z,11.90
2023-03-26T22:28:04.606Z,11.10
2023-03-26T22:30:33.475Z,9.60
2023-03-26T22:33:02.938Z,9.70
2023-03-26T22:35:32.557Z,10.20
2023-03-26T22:38:01.443Z,10.60
2023-03-26T22:40:31.717Z,10.60
2023-03-26T22:43:00.859Z,10.30
2023-03-26T22:45:32.876Z,10.50
2023-03-26T22:48:04.645Z,11.30
2023-03-26T22:50:33.911Z,10.60
2023-03-26T22:53:02.775Z,10.60
2023-03-26T22:55:32.594Z,10.80
2023-03-26T22:58:04.283Z,11.50
2023-03-26T23:00:32.807Z,11.50
2023-03-26T23:03:02.588Z,12.00
2023-03-26T23:05:31.680Z,10.90
2023-03-26T23:08:00.882Z,11.10
2023-03-26T23:10:30.412Z,12.20
2023-03-26T23:12:58.979Z,14.20
2023-03-26T23:15:28.298Z,14.10
2023-03-26T23:17:58.501Z,13.30
2023-03-26T23:20:29.454Z,12.40
2023-03-26T23:22:58.202Z,12.90
2023-03-26T23:25:33.110Z,13.90
2023-03-26T23:28:03.540Z,13.10
2023-03-26T23:30:32.263Z,13.40
2023-03-26T23:33:01.851Z,12.70
2023-03-26T23:35:30.564Z,12.00
2023-03-26T23:38:02.614Z,12.50
2023-03-26T23:40:32.421Z,14.90
2023-03-26T23:43:01.127Z,15.50
2023-03-26T23:45:31.117Z,14.40
2023-03-26T23:48:02.534Z,13.40
2023-03-26T23:50:31.696Z,15.70
2023-03-26T23:53:00.409Z,13.80
2023-03-26T23:55:29.504Z,15.60
2023-03-26T23:57:58.310Z,14.20
